首页
METAR-TAF:

METAR-TAF

机场 :

大瀑布城, 蒙大拿州, 美国

纬度: 47-28-24N, 经度: 111-22-56W, 海拔: 1120米

当前天气观测

该预报发布于42分钟前的14:53 UTC
风速5节,风向西
温度 -5°C
湿度 73%
气压 1031 hPa
能見度: 16.1公里
阴天层高于4800英尺

METAR: KGTF 191453Z 26005KT 10SM OVC048 M05/M09 A3045 RMK AO2 SLP365 T10501089 51011

时间: 09:35 (15:35 UTC)

预报

该预报发布于4小时和15分钟前的11:20 UTC
预报有效从19日的 12点(UTC)到 20日的 12点(UTC)
风速5节,风向西北
能見度: 10公里
散云层高于8000英尺
从 19日的 1500点(UTC)
风速6节,风向
能見度: 10公里
散云层高于5000英尺
多云层高于8000英尺
从 19日的 1800点(UTC)
风速9节,风向东北
能見度: 10公里
多云层高于5000英尺
从 20日的 0100点(UTC)
风速5节,风向多变
能見度: 10公里
散云层高于10000英尺

TAF: KGTF 191120Z 1912/2012 31005KT P6SM SCT080 FM191500 35006KT P6SM SCT050 BKN080 FM191800 04009KT P6SM BKN050 FM200100 VRB05KT P6SM SCT100

超过4000个机场的气象观测和天气预报(METAR&TAF报告)。

可查询的气象台以黄色和红色小点在地图上表示。

将鼠标移到小点上方,可查看气象台名称。

然后点击查看天气观测和预报。

如需切换地图:点击带黑十字的绿色按钮放大地图;点击带横线的绿色按钮缩小地图;或者点击绿色箭头查看邻近地区的地图。


METAR-TAF: